Time;durP1;ratioP1;P1;durP2;ratioP2;P2;SDS_P1;SDS_P2;PMS_P1;PMS_P2;Temp;Humidity;BMP_temperature;BMP_pressure;BME280_temperature;BME280_humidity;BME280_pressure;Samples;Min_cycle;Max_cycle;Signal;HPM_P1;HPM_P2
2022/12/13 00:01:12;;;;;;;4.60;1.33;;;;;;;;;;2101615;28;20040;-77
2022/12/13 00:02:31;;;;;;;5.72;1.63;;;;;;;;;;2099117;28;20029;-77
2022/12/13 00:03:54;;;;;;;4.50;1.88;;;;;;;;;;2100308;28;20032;-77
2022/12/13 00:05:13;;;;;;;1.83;1.00;;;;;;;;;;2106109;28;20059;-77
2022/12/13 00:06:33;;;;;;;3.88;1.20;;;;;;;;;;2101704;28;20028;-77
2022/12/13 00:07:51;;;;;;;2.65;1.02;;;;;;;;;;2097335;28;20036;-77
2022/12/13 00:09:14;;;;;;;3.45;1.70;;;;;;;;;;2096787;28;20497;-76
2022/12/13 00:10:33;;;;;;;2.67;0.95;;;;;;;;;;2101408;28;20074;-76
2022/12/13 00:11:53;;;;;;;5.32;1.02;;;;;;;;;;2100002;28;20056;-76
2022/12/13 00:13:12;;;;;;;4.22;1.33;;;;;;;;;;2100596;28;20501;-76
2022/12/13 00:14:31;;;;;;;5.07;1.20;;;;;;;;;;2095068;28;20493;-78
2022/12/13 00:16:00;;;;;;;6.57;1.77;;;;;;;;;;2096782;28;20050;-76
2022/12/13 00:17:19;;;;;;;5.15;1.40;;;;;;;;;;2098948;28;20036;-76
2022/12/13 00:18:38;;;;;;;3.90;1.40;;;;;;;;;;2097618;28;20024;-77
2022/12/13 00:19:59;;;;;;;3.03;1.27;;;;;;;;;;2100100;28;20044;-76
2022/12/13 00:21:18;;;;;;;5.13;1.13;;;;;;;;;;2098113;28;20028;-76
2022/12/13 00:22:37;;;;;;;5.55;1.42;;;;;;;;;;2105376;28;20055;-75
2022/12/13 00:23:57;;;;;;;2.42;1.70;;;;;;;;;;2100460;28;20060;-76
2022/12/13 00:25:18;;;;;;;8.38;1.30;;;;;;;;;;2098986;28;20436;-76
2022/12/13 00:26:37;;;;;;;1.85;1.20;;;;;;;;;;2100056;28;20029;-77
2022/12/13 00:27:58;;;;;;;2.53;1.88;;;;;;;;;;2099902;28;20017;-76
2022/12/13 00:29:17;;;;;;;4.65;1.15;;;;;;;;;;2098102;28;20131;-76
2022/12/13 00:30:36;;;;;;;4.13;1.40;;;;;;;;;;2098900;28;20032;-76
2022/12/13 00:31:55;;;;;;;4.28;1.33;;;;;;;;;;2101971;28;20040;-76
2022/12/13 00:33:14;;;;;;;4.80;1.00;;;;;;;;;;2099690;28;20083;-77
2022/12/13 00:34:33;;;;;;;5.13;0.73;;;;;;;;;;2097759;28;20024;-77
2022/12/13 00:35:52;;;;;;;6.15;1.38;;;;;;;;;;2100320;28;20037;-76
2022/12/13 00:37:11;;;;;;;4.10;1.38;;;;;;;;;;2096534;28;20033;-76
2022/12/13 00:38:31;;;;;;;4.72;1.45;;;;;;;;;;2100461;28;20032;-77
2022/12/13 00:39:50;;;;;;;2.10;1.30;;;;;;;;;;2094580;28;20028;-76
2022/12/13 00:41:13;;;;;;;3.45;1.50;;;;;;;;;;2089833;28;20033;-76
2022/12/13 00:42:33;;;;;;;3.58;1.05;;;;;;;;;;2096361;28;20114;-76
2022/12/13 00:43:52;;;;;;;7.90;1.67;;;;;;;;;;2098248;28;20028;-76
2022/12/13 00:45:11;;;;;;;7.00;1.20;;;;;;;;;;2098639;28;20041;-77
2022/12/13 00:46:30;;;;;;;2.75;1.33;;;;;;;;;;2097115;28;20032;-76
2022/12/13 00:47:50;;;;;;;2.10;1.30;;;;;;;;;;2099844;28;20025;-77
2022/12/13 00:49:09;;;;;;;3.22;0.82;;;;;;;;;;2098399;28;20025;-77
2022/12/13 00:50:29;;;;;;;6.65;1.20;;;;;;;;;;2099835;28;20025;-76
2022/12/13 00:51:48;;;;;;;5.63;1.80;;;;;;;;;;2101032;28;20020;-77
2022/12/13 00:53:07;;;;;;;6.13;2.08;;;;;;;;;;2097713;28;20020;-77
2022/12/13 00:54:25;;;;;;;3.63;1.50;;;;;;;;;;2096804;28;20032;-76
2022/12/13 00:55:44;;;;;;;4.72;1.50;;;;;;;;;;2095764;28;20404;-78
2022/12/13 00:57:03;;;;;;;5.43;1.50;;;;;;;;;;2101078;28;20385;-76
2022/12/13 00:58:22;;;;;;;3.47;0.82;;;;;;;;;;2099971;28;20452;-76
2022/12/13 00:59:41;;;;;;;4.95;1.63;;;;;;;;;;2098641;28;20032;-76
2022/12/13 01:01:03;;;;;;;5.25;1.50;;;;;;;;;;2096144;28;20431;-76
2022/12/13 01:02:22;;;;;;;;;;;;;;;;;;2106000;28;20457;-76
2022/12/13 01:03:41;;;;;;;5.43;1.30;;;;;;;;;;2099482;28;19904;-76
2022/12/13 01:05:00;;;;;;;2.70;1.48;;;;;;;;;;2096952;28;20115;-76
2022/12/13 01:06:21;;;;;;;2.85;1.33;;;;;;;;;;2097233;28;20085;-76
2022/12/13 01:07:43;;;;;;;3.53;1.38;;;;;;;;;;2100315;28;20778;-76
2022/12/13 01:09:03;;;;;;;6.18;1.30;;;;;;;;;;2100926;28;20048;-76
2022/12/13 01:10:26;;;;;;;7.07;1.67;;;;;;;;;;2096443;28;20028;-76
2022/12/13 01:11:45;;;;;;;6.85;2.22;;;;;;;;;;2096396;28;20439;-76
2022/12/13 01:13:04;;;;;;;7.22;1.70;;;;;;;;;;2095915;28;20041;-77
2022/12/13 01:14:24;;;;;;;4.57;1.67;;;;;;;;;;2100576;28;20025;-76
2022/12/13 01:15:44;;;;;;;5.82;1.67;;;;;;;;;;2096037;28;20029;-76
2022/12/13 01:17:03;;;;;;;6.68;1.65;;;;;;;;;;2096505;28;20037;-76
2022/12/13 01:18:22;;;;;;;4.85;1.45;;;;;;;;;;2097876;28;20024;-76
2022/12/13 01:19:41;;;;;;;6.53;1.38;;;;;;;;;;2098387;28;20448;-76
2022/12/13 01:21:14;;;;;;;4.20;1.13;;;;;;;;;;2104265;28;20032;-76
2022/12/13 01:22:33;;;;;;;5.38;1.75;;;;;;;;;;2102221;28;20028;-76
2022/12/13 01:23:52;;;;;;;4.55;1.88;;;;;;;;;;2100794;28;20032;-76
2022/12/13 01:25:10;;;;;;;5.63;1.60;;;;;;;;;;2099377;28;20499;-77
2022/12/13 01:26:29;;;;;;;5.53;1.80;;;;;;;;;;2100231;28;20397;-77
2022/12/13 01:27:48;;;;;;;2.20;1.50;;;;;;;;;;2100377;28;20131;-77
2022/12/13 01:29:07;;;;;;;5.97;2.08;;;;;;;;;;2095946;28;20566;-77
2022/12/13 01:30:27;;;;;;;2.42;1.20;;;;;;;;;;2100415;28;20036;-77
2022/12/13 01:31:47;;;;;;;4.40;2.55;;;;;;;;;;2100629;28;20025;-76
2022/12/13 01:33:06;;;;;;;4.72;1.80;;;;;;;;;;2096896;28;20044;-77
2022/12/13 01:34:26;;;;;;;3.83;1.23;;;;;;;;;;2096896;28;20024;-77
2022/12/13 01:35:45;;;;;;;9.05;2.08;;;;;;;;;;2094657;28;20033;-77
2022/12/13 01:37:04;;;;;;;7.40;1.90;;;;;;;;;;2095433;28;20485;-77
2022/12/13 01:38:23;;;;;;;6.85;1.98;;;;;;;;;;2097622;28;20049;-76
2022/12/13 01:39:42;;;;;;;9.80;2.03;;;;;;;;;;2097454;28;20024;-77
2022/12/13 01:41:01;;;;;;;5.30;1.63;;;;;;;;;;2099043;28;20029;-77
2022/12/13 01:42:20;;;;;;;4.88;1.88;;;;;;;;;;2097588;28;20156;-76
2022/12/13 01:43:39;;;;;;;2.88;1.05;;;;;;;;;;2096571;28;20195;-77
2022/12/13 01:45:03;;;;;;;4.30;1.90;;;;;;;;;;2100881;28;20028;-77
2022/12/13 01:46:23;;;;;;;6.13;1.60;;;;;;;;;;2101828;28;20036;-76
2022/12/13 01:47:47;;;;;;;8.45;2.30;;;;;;;;;;2100889;28;20028;-76
2022/12/13 01:49:12;;;;;;;5.47;2.35;;;;;;;;;;2097723;28;20032;-76
2022/12/13 01:50:33;;;;;;;3.03;1.58;;;;;;;;;;2096902;28;20029;-75
2022/12/13 01:51:55;;;;;;;5.18;1.75;;;;;;;;;;2096165;28;20029;-76
2022/12/13 01:53:17;;;;;;;2.60;1.35;;;;;;;;;;2090528;28;20389;-76
2022/12/13 01:54:39;;;;;;;3.47;1.95;;;;;;;;;;2099416;28;20037;-76
2022/12/13 01:56:01;;;;;;;1.60;1.27;;;;;;;;;;2107824;28;20028;-76
2022/12/13 01:57:21;;;;;;;10.88;1.63;;;;;;;;;;2103825;28;20029;-77
2022/12/13 01:58:40;;;;;;;5.00;2.72;;;;;;;;;;2097569;28;20021;-76
2022/12/13 02:00:00;;;;;;;6.97;2.10;;;;;;;;;;2100319;28;20032;-76
2022/12/13 02:01:20;;;;;;;7.43;1.75;;;;;;;;;;2097397;28;20116;-76
2022/12/13 02:02:39;;;;;;;3.83;2.15;;;;;;;;;;2096747;28;20501;-76
2022/12/13 02:03:58;;;;;;;2.97;1.80;;;;;;;;;;2096490;28;20111;-76
2022/12/13 02:05:22;;;;;;;3.58;1.67;;;;;;;;;;2100359;28;20033;-76
2022/12/13 02:06:43;;;;;;;3.92;1.50;;;;;;;;;;2100063;28;20020;-76
2022/12/13 02:08:03;;;;;;;3.95;1.95;;;;;;;;;;2096860;28;20508;-76
2022/12/13 02:09:23;;;;;;;3.28;2.47;;;;;;;;;;2099182;28;20028;-76
2022/12/13 02:10:43;;;;;;;8.50;1.42;;;;;;;;;;2099040;28;20032;-76
2022/12/13 02:12:03;;;;;;;5.10;1.80;;;;;;;;;;2095853;28;20029;-76
2022/12/13 02:13:21;;;;;;;2.15;1.80;;;;;;;;;;2100515;28;20112;-76
2022/12/13 02:14:40;;;;;;;4.70;1.85;;;;;;;;;;2100367;28;20024;-76
2022/12/13 02:16:17;;;;;;;5.95;2.40;;;;;;;;;;2100177;28;20439;-76
2022/12/13 02:17:46;;;;;;;4.70;1.42;;;;;;;;;;2100473;28;20036;-76
2022/12/13 02:19:40;;;;;;;2.72;1.35;;;;;;;;;;2107255;28;20476;-76
2022/12/13 02:21:02;;;;;;;9.25;2.13;;;;;;;;;;2067755;28;20113;-76
2022/12/13 02:22:33;;;;;;;9.10;1.40;;;;;;;;;;2067180;28;20035;-76
2022/12/13 02:24:01;;;;;;;5.60;1.48;;;;;;;;;;2093092;28;20045;-76
2022/12/13 02:25:23;;;;;;;1.83;1.60;;;;;;;;;;2093698;28;20024;-77
2022/12/13 02:26:45;;;;;;;3.15;0.98;;;;;;;;;;2101264;28;20020;-75
2022/12/13 02:28:31;;;;;;;1.90;1.30;;;;;;;;;;2101874;28;20509;-76
2022/12/13 02:30:09;;;;;;;2.97;1.52;;;;;;;;;;2108726;28;20040;-76
2022/12/13 02:31:36;;;;;;;1.30;1.20;;;;;;;;;;2102309;28;20028;-77
2022/12/13 02:33:04;;;;;;;7.93;3.08;;;;;;;;;;2110611;28;20524;-76
2022/12/13 02:34:24;;;;;;;14.98;4.10;;;;;;;;;;2102591;28;20028;-76
2022/12/13 02:35:50;;;;;;;2.10;1.45;;;;;;;;;;2095807;28;20028;-76
2022/12/13 02:37:15;;;;;;;2.75;1.67;;;;;;;;;;2101689;28;20028;-75
2022/12/13 02:38:53;;;;;;;3.47;2.20;;;;;;;;;;2110400;28;20036;-76
2022/12/13 02:40:14;;;;;;;3.72;1.42;;;;;;;;;;2100907;28;20028;-76
2022/12/13 02:41:36;;;;;;;1.00;0.93;;;;;;;;;;2099143;28;20036;-76
2022/12/13 02:43:01;;;;;;;1.58;1.30;;;;;;;;;;2098325;28;20037;-76
2022/12/13 02:44:20;;;;;;;2.55;2.28;;;;;;;;;;2099891;28;20024;-76
2022/12/13 02:45:50;;;;;;;6.85;2.38;;;;;;;;;;2099412;28;20021;-76
2022/12/13 02:47:18;;;;;;;3.40;1.45;;;;;;;;;;2107152;28;20095;-76
2022/12/13 02:48:39;;;;;;;2.88;1.52;;;;;;;;;;2101713;28;20031;-76
2022/12/13 02:50:01;;;;;;;4.47;1.70;;;;;;;;;;2100980;28;20049;-78
2022/12/13 02:51:20;;;;;;;1.83;1.58;;;;;;;;;;2110574;28;20027;-75
2022/12/13 02:52:41;;;;;;;2.25;1.40;;;;;;;;;;2105171;28;20033;-76
2022/12/13 02:54:00;;;;;;;4.97;1.83;;;;;;;;;;2102129;28;20481;-76
2022/12/13 02:55:20;;;;;;;3.72;1.02;;;;;;;;;;2102503;28;20032;-76
2022/12/13 02:56:39;;;;;;;1.08;0.98;;;;;;;;;;2098333;28;20029;-77
2022/12/13 02:57:58;;;;;;;2.92;1.25;;;;;;;;;;2101238;28;20477;-76
2022/12/13 02:59:17;;;;;;;3.47;1.70;;;;;;;;;;2102716;28;20033;-76
2022/12/13 03:00:43;;;;;;;2.78;1.35;;;;;;;;;;2095013;28;20052;-76
2022/12/13 03:02:23;;;;;;;2.28;1.60;;;;;;;;;;2096796;28;20021;-76
2022/12/13 03:03:47;;;;;;;2.10;1.13;;;;;;;;;;2100915;28;20206;-76
2022/12/13 03:06:53;;;;;;;1.20;1.10;;;;;;;;;;2102810;28;20032;-76
2022/12/13 03:08:18;;;;;;;1.83;1.38;;;;;;;;;;2101726;28;20028;-76
2022/12/13 03:09:55;;;;;;;2.15;1.17;;;;;;;;;;2102071;28;20020;-76
2022/12/13 03:11:16;;;;;;;1.92;1.17;;;;;;;;;;2103133;28;20037;-76
2022/12/13 03:14:22;;;;;;;3.38;1.10;;;;;;;;;;2101844;28;20024;-76
2022/12/13 03:15:48;;;;;;;6.00;1.88;;;;;;;;;;2101045;28;20036;-76
2022/12/13 03:17:08;;;;;;;1.73;1.33;;;;;;;;;;2098932;28;20546;-76
2022/12/13 03:18:28;;;;;;;4.15;2.10;;;;;;;;;;2097391;28;20036;-75
2022/12/13 03:19:50;;;;;;;3.53;1.83;;;;;;;;;;2099714;28;20032;-76
2022/12/13 03:21:10;;;;;;;3.33;1.70;;;;;;;;;;2097782;28;20106;-77
2022/12/13 03:22:32;;;;;;;2.13;1.00;;;;;;;;;;2100651;28;20032;-77
2022/12/13 03:23:51;;;;;;;5.63;1.92;;;;;;;;;;2107967;28;20035;-76
2022/12/13 03:25:10;;;;;;;1.60;1.40;;;;;;;;;;2103832;28;20446;-76
2022/12/13 03:26:28;;;;;;;1.30;1.20;;;;;;;;;;2101407;28;20028;-77
2022/12/13 03:27:47;;;;;;;1.70;1.38;;;;;;;;;;2094955;28;20033;-77
2022/12/13 03:29:06;;;;;;;1.25;0.88;;;;;;;;;;2099458;28;20235;-77
2022/12/13 03:30:25;;;;;;;2.00;1.23;;;;;;;;;;2096929;28;20052;-77
2022/12/13 03:31:44;;;;;;;1.75;1.23;;;;;;;;;;2098912;28;20020;-77
2022/12/13 03:33:02;;;;;;;1.83;1.00;;;;;;;;;;2096778;28;20036;-77
2022/12/13 03:34:21;;;;;;;2.03;1.27;;;;;;;;;;2095192;28;20033;-77
2022/12/13 03:35:41;;;;;;;2.42;2.05;;;;;;;;;;2098798;28;20032;-77
2022/12/13 03:37:00;;;;;;;3.80;1.80;;;;;;;;;;2097083;28;20614;-76
2022/12/13 03:38:19;;;;;;;2.72;1.98;;;;;;;;;;2099993;28;20060;-77
2022/12/13 03:39:38;;;;;;;2.92;1.50;;;;;;;;;;2106712;28;20055;-77
2022/12/13 03:41:08;;;;;;;1.20;1.08;;;;;;;;;;2103929;28;20033;-77
2022/12/13 03:42:27;;;;;;;5.80;2.05;;;;;;;;;;2099434;28;20037;-76
2022/12/13 03:43:45;;;;;;;2.00;1.42;;;;;;;;;;2101482;28;20075;-76
2022/12/13 03:45:04;;;;;;;1.80;1.50;;;;;;;;;;2102012;28;20040;-76
2022/12/13 03:46:23;;;;;;;2.30;1.08;;;;;;;;;;2101041;28;20041;-78
2022/12/13 03:47:45;;;;;;;3.42;1.95;;;;;;;;;;2098934;28;20025;-77
2022/12/13 03:49:04;;;;;;;3.63;1.70;;;;;;;;;;2098037;28;20107;-77
2022/12/13 03:50:23;;;;;;;1.52;1.23;;;;;;;;;;2097530;28;20237;-78
2022/12/13 03:51:42;;;;;;;3.00;1.65;;;;;;;;;;2100864;28;20021;-77
2022/12/13 03:53:02;;;;;;;4.72;2.38;;;;;;;;;;2096578;28;20055;-77
2022/12/13 03:54:21;;;;;;;2.53;1.67;;;;;;;;;;2100725;28;20482;-77
2022/12/13 03:55:40;;;;;;;3.72;1.95;;;;;;;;;;2099761;28;20040;-77
2022/12/13 03:56:59;;;;;;;0.93;0.85;;;;;;;;;;2101303;28;20483;-77
2022/12/13 03:58:18;;;;;;;4.05;1.67;;;;;;;;;;2098090;28;20020;-77
2022/12/13 03:59:37;;;;;;;3.65;1.40;;;;;;;;;;2097682;28;20028;-77
2022/12/13 04:00:56;;;;;;;3.78;1.52;;;;;;;;;;2095688;28;20060;-77
2022/12/13 04:02:15;;;;;;;1.25;1.15;;;;;;;;;;2097302;28;20024;-77
2022/12/13 04:03:34;;;;;;;1.98;1.73;;;;;;;;;;2096267;28;20036;-77
2022/12/13 04:04:53;;;;;;;3.70;1.88;;;;;;;;;;2098355;28;20032;-75
2022/12/13 04:06:13;;;;;;;4.88;1.73;;;;;;;;;;2097621;28;20032;-76
2022/12/13 04:07:32;;;;;;;1.80;1.20;;;;;;;;;;2097343;28;20056;-76
2022/12/13 04:08:51;;;;;;;5.53;1.60;;;;;;;;;;2099460;28;20036;-76
2022/12/13 04:10:10;;;;;;;2.33;1.30;;;;;;;;;;2101153;28;20020;-76
2022/12/13 04:14:47;;;;;;;1.77;1.20;;;;;;;;;;2100828;28;20028;-77
2022/12/13 04:16:06;;;;;;;2.55;1.65;;;;;;;;;;2101629;28;20036;-77
2022/12/13 04:17:25;;;;;;;2.70;1.63;;;;;;;;;;2097736;28;20032;-76
2022/12/13 04:18:44;;;;;;;2.75;1.63;;;;;;;;;;2099273;28;20076;-77
2022/12/13 04:20:03;;;;;;;4.45;1.27;;;;;;;;;;2099709;28;20024;-76
2022/12/13 04:21:22;;;;;;;2.17;1.75;;;;;;;;;;2096523;28;20033;-77
2022/12/13 04:22:41;;;;;;;4.18;2.25;;;;;;;;;;2100356;28;20412;-76
2022/12/13 04:24:00;;;;;;;1.40;1.08;;;;;;;;;;2099779;28;20056;-77
2022/12/13 04:25:19;;;;;;;3.38;1.35;;;;;;;;;;2095748;28;20024;-77
2022/12/13 04:26:38;;;;;;;2.65;1.60;;;;;;;;;;2099317;28;20024;-77
2022/12/13 04:27:57;;;;;;;2.05;1.65;;;;;;;;;;2099465;28;20016;-77
2022/12/13 04:29:16;;;;;;;3.72;1.77;;;;;;;;;;2097248;28;20016;-77
2022/12/13 04:30:35;;;;;;;2.63;1.92;;;;;;;;;;2096433;28;20508;-77
2022/12/13 04:31:54;;;;;;;2.88;2.00;;;;;;;;;;2101609;28;20036;-77
2022/12/13 04:33:13;;;;;;;4.47;1.08;;;;;;;;;;2099684;28;20033;-76
2022/12/13 04:34:32;;;;;;;1.50;1.35;;;;;;;;;;2096911;28;20025;-76
2022/12/13 04:35:51;;;;;;;1.70;1.30;;;;;;;;;;2096037;28;20037;-76
2022/12/13 04:37:10;;;;;;;3.60;1.70;;;;;;;;;;2098615;28;20114;-78
2022/12/13 04:38:29;;;;;;;3.15;1.80;;;;;;;;;;2100884;28;20063;-76
2022/12/13 04:39:48;;;;;;;1.92;1.63;;;;;;;;;;2100351;28;20040;-77
2022/12/13 04:41:12;;;;;;;3.95;1.50;;;;;;;;;;2095886;28;20107;-76
2022/12/13 04:42:31;;;;;;;4.90;1.50;;;;;;;;;;2095883;28;20064;-77
2022/12/13 04:43:53;;;;;;;4.00;1.25;;;;;;;;;;2099408;28;20028;-77
2022/12/13 04:45:14;;;;;;;1.70;1.20;;;;;;;;;;2097038;28;20020;-78
2022/12/13 04:46:33;;;;;;;4.90;1.60;;;;;;;;;;2097805;28;20112;-77
2022/12/13 04:47:52;;;;;;;1.67;1.58;;;;;;;;;;2101854;28;20033;-77
2022/12/13 04:49:11;;;;;;;4.68;1.70;;;;;;;;;;2099361;28;20025;-77
2022/12/13 04:50:30;;;;;;;4.05;1.02;;;;;;;;;;2097700;28;20021;-77
2022/12/13 04:51:49;;;;;;;2.72;1.65;;;;;;;;;;2097375;28;20111;-77
2022/12/13 04:53:12;;;;;;;2.20;1.40;;;;;;;;;;2096275;28;20025;-77
2022/12/13 04:54:31;;;;;;;4.30;2.05;;;;;;;;;;2096958;28;20021;-76
2022/12/13 04:55:51;;;;;;;4.80;1.63;;;;;;;;;;2095518;28;20032;-76
2022/12/13 04:57:10;;;;;;;1.60;1.25;;;;;;;;;;2098729;28;20024;-77
2022/12/13 04:58:30;;;;;;;3.80;1.30;;;;;;;;;;2101064;28;20040;-77
2022/12/13 04:59:48;;;;;;;7.05;1.60;;;;;;;;;;2099845;28;20032;-76
2022/12/13 05:01:08;;;;;;;1.88;1.20;;;;;;;;;;2101003;28;20048;-77
2022/12/13 05:02:27;;;;;;;3.47;1.35;;;;;;;;;;2097793;28;20408;-76
2022/12/13 05:03:46;;;;;;;1.13;1.00;;;;;;;;;;2098090;28;20064;-76
2022/12/13 05:05:05;;;;;;;4.05;1.27;;;;;;;;;;2094662;28;20024;-77
2022/12/13 05:06:24;;;;;;;2.75;1.58;;;;;;;;;;2097238;28;20412;-77
2022/12/13 05:07:46;;;;;;;2.05;1.17;;;;;;;;;;2101679;28;20028;-76
2022/12/13 05:09:06;;;;;;;2.10;1.17;;;;;;;;;;2100067;28;20502;-77
2022/12/13 05:10:25;;;;;;;1.50;0.88;;;;;;;;;;2097432;28;20032;-77
2022/12/13 05:11:44;;;;;;;2.42;0.80;;;;;;;;;;2097485;28;20020;-77
2022/12/13 05:13:03;;;;;;;6.03;1.65;;;;;;;;;;2098612;28;20025;-77
2022/12/13 05:14:22;;;;;;;5.55;2.97;;;;;;;;;;2100134;28;20025;-77
2022/12/13 05:15:41;;;;;;;1.77;1.58;;;;;;;;;;2095876;28;20028;-76
2022/12/13 05:17:00;;;;;;;1.73;0.73;;;;;;;;;;2096789;28;20401;-77
2022/12/13 05:18:19;;;;;;;1.15;1.00;;;;;;;;;;2100716;28;20612;-77
2022/12/13 05:19:38;;;;;;;2.83;1.10;;;;;;;;;;2100014;28;20397;-77
2022/12/13 05:21:01;;;;;;;9.90;1.73;;;;;;;;;;2099324;28;20500;-77
2022/12/13 05:22:20;;;;;;;3.47;1.90;;;;;;;;;;2097737;28;20050;-76
2022/12/13 05:23:39;;;;;;;1.80;1.10;;;;;;;;;;2100424;28;20028;-77
2022/12/13 05:24:58;;;;;;;1.95;1.17;;;;;;;;;;2096960;28;20033;-77
2022/12/13 05:26:17;;;;;;;3.85;1.80;;;;;;;;;;2096380;28;20103;-76
2022/12/13 05:27:36;;;;;;;4.93;1.60;;;;;;;;;;2095803;28;20025;-77
2022/12/13 05:28:55;;;;;;;1.20;1.10;;;;;;;;;;2100613;28;20159;-78
2022/12/13 05:30:14;;;;;;;4.07;1.20;;;;;;;;;;2093216;28;20028;-76
2022/12/13 05:31:33;;;;;;;2.95;1.48;;;;;;;;;;2095055;28;20108;-76
2022/12/13 05:32:52;;;;;;;2.45;1.70;;;;;;;;;;2091833;28;20036;-77
2022/12/13 05:34:10;;;;;;;1.10;1.00;;;;;;;;;;2099087;28;20060;-77
2022/12/13 05:35:29;;;;;;;3.25;1.40;;;;;;;;;;2097756;28;20032;-76
2022/12/13 05:36:48;;;;;;;3.08;1.77;;;;;;;;;;2099862;28;20036;-77
2022/12/13 05:38:07;;;;;;;6.57;1.92;;;;;;;;;;2097752;28;20664;-77
2022/12/13 05:39:26;;;;;;;2.28;1.80;;;;;;;;;;2096014;28;20032;-76
2022/12/13 05:40:45;;;;;;;4.70;2.13;;;;;;;;;;2097669;28;20111;-76
2022/12/13 05:42:04;;;;;;;4.35;2.17;;;;;;;;;;2098292;28;20028;-77
2022/12/13 05:43:22;;;;;;;7.82;2.45;;;;;;;;;;2100704;28;20052;-77
2022/12/13 05:44:41;;;;;;;1.58;1.48;;;;;;;;;;2100211;28;20052;-77
2022/12/13 05:46:00;;;;;;;4.70;2.15;;;;;;;;;;2097357;28;20456;-77
2022/12/13 05:47:19;;;;;;;3.80;1.48;;;;;;;;;;2096720;28;20514;-77
2022/12/13 05:48:39;;;;;;;2.88;1.33;;;;;;;;;;2095748;28;20147;-77
2022/12/13 05:49:58;;;;;;;1.27;1.10;;;;;;;;;;2094512;28;20104;-77
2022/12/13 05:51:16;;;;;;;2.80;1.63;;;;;;;;;;2097420;28;20515;-76
2022/12/13 05:52:35;;;;;;;4.40;1.73;;;;;;;;;;2098378;28;20041;-76
2022/12/13 05:53:54;;;;;;;2.47;1.73;;;;;;;;;;2098643;28;20024;-76
2022/12/13 05:55:13;;;;;;;1.90;1.65;;;;;;;;;;2099074;28;20075;-77
2022/12/13 05:56:32;;;;;;;2.65;1.42;;;;;;;;;;2094394;28;20044;-77
2022/12/13 05:57:51;;;;;;;2.78;1.30;;;;;;;;;;2097109;28;20032;-77
2022/12/13 05:59:10;;;;;;;3.30;1.80;;;;;;;;;;2104586;28;20415;-76
2022/12/13 06:00:29;;;;;;;3.22;1.45;;;;;;;;;;2101516;28;20461;-77
2022/12/13 06:01:48;;;;;;;4.07;2.08;;;;;;;;;;2097950;28;20028;-77
2022/12/13 06:03:07;;;;;;;4.78;1.65;;;;;;;;;;2100054;28;20465;-76
2022/12/13 06:04:26;;;;;;;5.18;2.05;;;;;;;;;;2101442;28;20032;-75
2022/12/13 06:05:45;;;;;;;6.70;2.13;;;;;;;;;;2096944;28;20085;-76
2022/12/13 06:07:05;;;;;;;1.70;1.58;;;;;;;;;;2095697;28;20028;-76
2022/12/13 06:08:24;;;;;;;1.90;1.73;;;;;;;;;;2089868;28;20103;-76
2022/12/13 06:09:43;;;;;;;5.50;1.55;;;;;;;;;;2093129;28;20027;-77
2022/12/13 06:11:03;;;;;;;1.90;1.10;;;;;;;;;;2097897;28;20017;-77
2022/12/13 06:12:22;;;;;;;3.22;1.80;;;;;;;;;;2096585;28;20021;-76
2022/12/13 06:13:42;;;;;;;4.25;1.77;;;;;;;;;;2100599;28;20033;-77
2022/12/13 06:15:01;;;;;;;4.38;2.13;;;;;;;;;;2099609;28;20086;-76
2022/12/13 06:16:20;;;;;;;4.25;1.83;;;;;;;;;;2095987;28;20044;-76
2022/12/13 06:17:38;;;;;;;1.65;1.27;;;;;;;;;;2097135;28;20033;-77
2022/12/13 06:18:57;;;;;;;4.50;2.03;;;;;;;;;;2098071;28;20032;-76
2022/12/13 06:20:17;;;;;;;3.45;2.13;;;;;;;;;;2096336;28;20448;-76
2022/12/13 06:21:35;;;;;;;1.60;1.25;;;;;;;;;;2098414;28;20040;-76
2022/12/13 06:22:54;;;;;;;4.40;1.85;;;;;;;;;;2100810;28;20040;-76
2022/12/13 06:24:17;;;;;;;2.60;1.42;;;;;;;;;;2094748;28;20409;-76
2022/12/13 06:25:36;;;;;;;1.90;1.75;;;;;;;;;;2096147;28;20048;-78
2022/12/13 06:26:55;;;;;;;2.55;1.30;;;;;;;;;;2098751;28;20028;-76
2022/12/13 06:28:14;;;;;;;3.63;2.00;;;;;;;;;;2098263;28;20025;-76
2022/12/13 06:29:33;;;;;;;2.72;1.38;;;;;;;;;;2100226;28;20160;-76
2022/12/13 06:30:52;;;;;;;1.55;1.15;;;;;;;;;;2097011;28;20040;-78
2022/12/13 06:32:11;;;;;;;3.15;1.75;;;;;;;;;;2090093;28;20041;-76
2022/12/13 06:33:34;;;;;;;1.38;1.27;;;;;;;;;;2084551;28;20041;-75
2022/12/13 06:34:54;;;;;;;;;;;;;;;;;;2085233;28;20111;-76
2022/12/13 06:36:13;;;;;;;2.13;1.42;;;;;;;;;;2090629;28;19909;-78
2022/12/13 06:37:32;;;;;;;2.22;1.60;;;;;;;;;;2089488;28;20048;-77
2022/12/13 06:38:51;;;;;;;3.85;2.00;;;;;;;;;;2085076;28;20025;-75
2022/12/13 06:40:10;;;;;;;4.30;1.70;;;;;;;;;;2084855;28;20111;-77
2022/12/13 06:41:29;;;;;;;1.65;1.55;;;;;;;;;;2089231;28;20500;-79
2022/12/13 06:42:48;;;;;;;2.63;1.50;;;;;;;;;;2084248;28;20029;-78
2022/12/13 06:44:07;;;;;;;2.67;1.75;;;;;;;;;;2084697;28;20032;-77
2022/12/13 06:45:26;;;;;;;3.47;1.60;;;;;;;;;;2082494;28;20033;-75
2022/12/13 06:46:44;;;;;;;2.63;2.00;;;;;;;;;;2086245;28;20029;-77
2022/12/13 06:48:03;;;;;;;4.22;1.80;;;;;;;;;;2092553;28;20032;-82
2022/12/13 06:49:24;;;;;;;1.52;1.00;;;;;;;;;;2087523;28;20062;-79
2022/12/13 06:50:42;;;;;;;2.17;1.80;;;;;;;;;;2092094;28;20048;-78
2022/12/13 06:52:01;;;;;;;3.90;1.55;;;;;;;;;;2084198;28;20030;-76
2022/12/13 06:53:20;;;;;;;4.97;1.75;;;;;;;;;;2081846;28;20096;-79
2022/12/13 06:54:39;;;;;;;3.88;2.30;;;;;;;;;;2080305;28;20510;-78
2022/12/13 06:56:02;;;;;;;5.90;1.80;;;;;;;;;;2081844;28;20037;-77
2022/12/13 06:57:24;;;;;;;1.95;1.70;;;;;;;;;;2081592;28;20037;-76
2022/12/13 06:58:43;;;;;;;1.35;1.25;;;;;;;;;;2081651;28;20030;-76
2022/12/13 07:00:03;;;;;;;3.28;1.75;;;;;;;;;;2081667;28;20037;-76
2022/12/13 07:01:22;;;;;;;2.95;1.75;;;;;;;;;;2085506;28;20033;-76
2022/12/13 07:02:41;;;;;;;1.85;1.50;;;;;;;;;;2081432;28;20033;-76
2022/12/13 07:04:00;;;;;;;1.30;1.13;;;;;;;;;;2085354;28;20037;-76
2022/12/13 07:05:19;;;;;;;1.92;1.33;;;;;;;;;;2084166;28;20037;-78
2022/12/13 07:06:38;;;;;;;4.97;1.85;;;;;;;;;;2084822;28;20025;-77
2022/12/13 07:07:57;;;;;;;3.05;1.98;;;;;;;;;;2082714;28;20061;-76
2022/12/13 07:09:16;;;;;;;5.03;1.77;;;;;;;;;;2084710;28;20467;-76
2022/12/13 07:10:37;;;;;;;2.72;2.20;;;;;;;;;;2085377;28;20446;-76
2022/12/13 07:11:56;;;;;;;2.88;1.90;;;;;;;;;;2084102;28;20025;-76
2022/12/13 07:13:15;;;;;;;2.75;1.15;;;;;;;;;;2085279;28;20030;-76
2022/12/13 07:14:34;;;;;;;1.58;1.45;;;;;;;;;;2087124;28;20026;-76
2022/12/13 07:15:53;;;;;;;3.13;1.70;;;;;;;;;;2087502;28;20029;-76
2022/12/13 07:17:12;;;;;;;2.08;1.50;;;;;;;;;;2083311;28;20041;-76
2022/12/13 07:18:31;;;;;;;4.18;1.48;;;;;;;;;;2083097;28;20029;-76
2022/12/13 07:19:49;;;;;;;3.20;1.80;;;;;;;;;;2083147;28;20510;-76
2022/12/13 07:21:09;;;;;;;2.03;1.27;;;;;;;;;;2082380;28;20030;-78
2022/12/13 07:22:28;;;;;;;3.60;2.20;;;;;;;;;;2086306;28;20073;-76
2022/12/13 07:23:49;;;;;;;2.13;1.58;;;;;;;;;;2086526;28;20033;-77
2022/12/13 07:25:15;;;;;;;1.92;1.52;;;;;;;;;;2083931;28;20025;-76
2022/12/13 07:26:34;;;;;;;1.45;1.35;;;;;;;;;;2086628;28;20037;-76
2022/12/13 07:28:00;;;;;;;2.85;2.00;;;;;;;;;;2084123;28;20029;-76
2022/12/13 07:29:19;;;;;;;1.40;1.30;;;;;;;;;;2092657;28;20785;-76
2022/12/13 07:30:38;;;;;;;3.83;1.58;;;;;;;;;;2085660;28;20029;-75
2022/12/13 07:31:58;;;;;;;3.28;1.52;;;;;;;;;;2086214;28;20056;-76
2022/12/13 07:33:16;;;;;;;1.70;1.25;;;;;;;;;;2078260;28;20045;-75
2022/12/13 07:34:35;;;;;;;1.63;1.52;;;;;;;;;;2077234;28;20463;-75
2022/12/13 07:36:01;;;;;;;4.25;1.50;;;;;;;;;;2078386;28;20129;-76
2022/12/13 07:37:20;;;;;;;2.70;1.15;;;;;;;;;;2086183;28;20029;-77
2022/12/13 07:38:39;;;;;;;2.00;1.50;;;;;;;;;;2077760;28;20022;-77
2022/12/13 07:39:58;;;;;;;2.35;1.17;;;;;;;;;;2077760;28;20029;-76
2022/12/13 07:41:18;;;;;;;3.00;1.40;;;;;;;;;;2081914;28;20026;-76
2022/12/13 07:42:37;;;;;;;2.38;1.38;;;;;;;;;;2077783;28;20037;-76
2022/12/13 07:43:56;;;;;;;2.67;1.23;;;;;;;;;;2074627;28;20061;-77
2022/12/13 07:45:15;;;;;;;4.03;1.52;;;;;;;;;;2073908;28;20038;-76
2022/12/13 07:46:33;;;;;;;3.65;1.60;;;;;;;;;;2074460;28;20586;-75
2022/12/13 07:47:52;;;;;;;1.42;1.33;;;;;;;;;;2077739;28;20519;-77
2022/12/13 07:49:11;;;;;;;4.07;1.58;;;;;;;;;;2074898;28;20037;-76
2022/12/13 07:50:31;;;;;;;6.38;1.67;;;;;;;;;;2073690;28;20025;-76
2022/12/13 07:51:50;;;;;;;1.27;1.17;;;;;;;;;;2075011;28;20029;-77
2022/12/13 07:53:09;;;;;;;1.80;1.20;;;;;;;;;;2077355;28;20506;-76
2022/12/13 07:54:28;;;;;;;4.05;1.63;;;;;;;;;;2075378;28;20025;-77
2022/12/13 07:55:48;;;;;;;1.60;1.50;;;;;;;;;;2074812;28;20037;-78
2022/12/13 07:57:07;;;;;;;1.90;1.80;;;;;;;;;;2074667;28;20030;-77
2022/12/13 07:58:28;;;;;;;2.08;1.70;;;;;;;;;;2074360;28;20033;-76
2022/12/13 07:59:47;;;;;;;1.33;1.23;;;;;;;;;;2076778;28;20025;-76
2022/12/13 08:01:07;;;;;;;2.30;1.90;;;;;;;;;;2075096;28;20232;-75
2022/12/13 08:02:26;;;;;;;2.55;1.48;;;;;;;;;;2078307;28;20037;-77
2022/12/13 08:03:48;;;;;;;3.60;1.80;;;;;;;;;;2082814;28;20465;-77
2022/12/13 08:05:07;;;;;;;1.90;1.80;;;;;;;;;;2081960;28;20681;-76
2022/12/13 08:06:26;;;;;;;1.55;1.38;;;;;;;;;;2077171;28;20033;-76
2022/12/13 08:07:45;;;;;;;4.10;1.60;;;;;;;;;;2074205;28;20467;-76
2022/12/13 08:09:04;;;;;;;1.80;1.42;;;;;;;;;;2078727;28;20033;-76